sensor_id;sensor_type;location;lat;lon;timestamp;pressure;altitude;pressure_sealevel;temperature;humidity
60258;BME280;46115;44.484;11.314;2022-08-05T00:03:34;100156.13;;;26.47;45.49
60258;BME280;46115;44.484;11.314;2022-08-05T00:07:37;100157.41;;;26.36;45.78
60258;BME280;46115;44.484;11.314;2022-08-05T00:11:39;100152.22;;;26.49;45.48
60258;BME280;46115;44.484;11.314;2022-08-05T00:15:43;100151.66;;;26.31;46.05
60258;BME280;46115;44.484;11.314;2022-08-05T00:19:46;100147.44;;;26.51;45.76
60258;BME280;46115;44.484;11.314;2022-08-05T00:23:48;100136.34;;;26.23;46.24
60258;BME280;46115;44.484;11.314;2022-08-05T00:27:51;100141.50;;;26.33;46.03
60258;BME280;46115;44.484;11.314;2022-08-05T00:31:55;100147.41;;;26.36;45.93
60258;BME280;46115;44.484;11.314;2022-08-05T00:35:57;100146.03;;;26.40;45.97
60258;BME280;46115;44.484;11.314;2022-08-05T00:40:00;100130.47;;;26.20;46.45
60258;BME280;46115;44.484;11.314;2022-08-05T00:44:03;100137.16;;;26.09;46.56
60258;BME280;46115;44.484;11.314;2022-08-05T00:48:10;100142.06;;;25.91;47.23
60258;BME280;46115;44.484;11.314;2022-08-05T00:52:13;100141.66;;;26.02;46.94
60258;BME280;46115;44.484;11.314;2022-08-05T00:56:16;100142.00;;;25.76;47.57
60258;BME280;46115;44.484;11.314;2022-08-05T01:00:19;100137.38;;;25.85;47.28
60258;BME280;46115;44.484;11.314;2022-08-05T01:04:22;100143.69;;;25.77;47.54
60258;BME280;46115;44.484;11.314;2022-08-05T01:08:25;100141.47;;;25.80;47.46
60258;BME280;46115;44.484;11.314;2022-08-05T01:12:27;100141.72;;;25.71;47.65
60258;BME280;46115;44.484;11.314;2022-08-05T01:16:38;100120.84;;;25.79;47.07
60258;BME280;46115;44.484;11.314;2022-08-05T01:20:52;100142.91;;;25.91;47.26
60258;BME280;46115;44.484;11.314;2022-08-05T01:25:11;100139.84;;;25.71;47.70
60258;BME280;46115;44.484;11.314;2022-08-05T01:29:25;100127.53;;;25.61;47.67
60258;BME280;46115;44.484;11.314;2022-08-05T01:33:33;100140.22;;;25.68;47.61
60258;BME280;46115;44.484;11.314;2022-08-05T01:37:39;100136.38;;;25.55;47.99
60258;BME280;46115;44.484;11.314;2022-08-05T01:41:46;100136.91;;;25.50;48.07
60258;BME280;46115;44.484;11.314;2022-08-05T01:45:53;100139.31;;;25.45;48.18
60258;BME280;46115;44.484;11.314;2022-08-05T01:49:57;100139.75;;;25.34;48.53
60258;BME280;46115;44.484;11.314;2022-08-05T01:54:02;100135.94;;;25.43;48.21
60258;BME280;46115;44.484;11.314;2022-08-05T01:58:08;100138.84;;;25.10;49.07
60258;BME280;46115;44.484;11.314;2022-08-05T02:02:14;100095.75;;;25.09;48.56
60258;BME280;46115;44.484;11.314;2022-08-05T02:06:17;100139.41;;;25.29;48.61
60258;BME280;46115;44.484;11.314;2022-08-05T02:10:20;100130.56;;;25.12;49.04
60258;BME280;46115;44.484;11.314;2022-08-05T02:14:26;100129.03;;;25.09;49.22
60258;BME280;46115;44.484;11.314;2022-08-05T02:18:35;100119.69;;;25.20;49.01
60258;BME280;46115;44.484;11.314;2022-08-05T02:22:42;100124.41;;;24.79;50.07
60258;BME280;46115;44.484;11.314;2022-08-05T02:26:48;100120.97;;;25.01;49.50
60258;BME280;46115;44.484;11.314;2022-08-05T02:30:55;100131.03;;;24.76;50.24
60258;BME280;46115;44.484;11.314;2022-08-05T02:35:02;100096.84;;;24.83;49.51
60258;BME280;46115;44.484;11.314;2022-08-05T02:39:09;100122.72;;;24.78;50.04
60258;BME280;46115;44.484;11.314;2022-08-05T02:43:14;100108.78;;;24.97;49.44
60258;BME280;46115;44.484;11.314;2022-08-05T02:47:19;100109.50;;;24.99;49.40
60258;BME280;46115;44.484;11.314;2022-08-05T02:51:24;100110.81;;;24.95;49.66
60258;BME280;46115;44.484;11.314;2022-08-05T02:55:29;100099.72;;;24.82;49.91
60258;BME280;46115;44.484;11.314;2022-08-05T02:59:33;100114.00;;;24.68;50.27
60258;BME280;46115;44.484;11.314;2022-08-05T03:03:38;100113.50;;;24.56;50.77
60258;BME280;46115;44.484;11.314;2022-08-05T03:07:45;100111.75;;;24.32;51.34
60258;BME280;46115;44.484;11.314;2022-08-05T03:11:48;100111.75;;;24.32;51.45
60258;BME280;46115;44.484;11.314;2022-08-05T03:15:51;100112.09;;;24.29;51.45
60258;BME280;46115;44.484;11.314;2022-08-05T03:19:53;100121.13;;;24.52;50.77
60258;BME280;46115;44.484;11.314;2022-08-05T03:23:58;100115.22;;;24.49;50.81
60258;BME280;46115;44.484;11.314;2022-08-05T03:28:01;100117.22;;;24.55;50.83
60258;BME280;46115;44.484;11.314;2022-08-05T03:32:08;100118.00;;;24.80;49.97
60258;BME280;46115;44.484;11.314;2022-08-05T03:36:10;100107.41;;;24.62;50.42
60258;BME280;46115;44.484;11.314;2022-08-05T03:40:14;100117.06;;;24.65;50.38
60258;BME280;46115;44.484;11.314;2022-08-05T03:44:17;100111.88;;;24.86;49.76
60258;BME280;46115;44.484;11.314;2022-08-05T03:48:20;100116.69;;;24.60;50.70
60258;BME280;46115;44.484;11.314;2022-08-05T03:52:26;100121.75;;;24.63;50.66
60258;BME280;46115;44.484;11.314;2022-08-05T03:56:37;100106.72;;;24.60;50.42
60258;BME280;46115;44.484;11.314;2022-08-05T04:00:41;100110.06;;;24.31;51.46
60258;BME280;46115;44.484;11.314;2022-08-05T04:04:45;100111.88;;;24.22;51.63
60258;BME280;46115;44.484;11.314;2022-08-05T04:08:49;100120.59;;;24.57;50.74
60258;BME280;46115;44.484;11.314;2022-08-05T04:12:53;100114.44;;;24.32;51.40
60258;BME280;46115;44.484;11.314;2022-08-05T04:16:57;100123.34;;;24.49;51.07
60258;BME280;46115;44.484;11.314;2022-08-05T04:21:00;100122.88;;;24.37;51.32
60258;BME280;46115;44.484;11.314;2022-08-05T04:25:05;100126.22;;;24.39;51.31
60258;BME280;46115;44.484;11.314;2022-08-05T04:29:09;100135.00;;;24.41;51.20
60258;BME280;46115;44.484;11.314;2022-08-05T04:33:12;100139.75;;;24.39;51.44
60258;BME280;46115;44.484;11.314;2022-08-05T04:37:15;100135.03;;;24.33;51.61
60258;BME280;46115;44.484;11.314;2022-08-05T04:41:17;100140.69;;;24.63;50.71
60258;BME280;46115;44.484;11.314;2022-08-05T04:45:21;100135.78;;;24.58;50.97
60258;BME280;46115;44.484;11.314;2022-08-05T04:49:25;100128.19;;;24.70;50.35
60258;BME280;46115;44.484;11.314;2022-08-05T04:53:28;100135.34;;;25.02;49.66
60258;BME280;46115;44.484;11.314;2022-08-05T04:57:30;100131.94;;;25.08;49.41
60258;BME280;46115;44.484;11.314;2022-08-05T05:01:34;100131.94;;;25.31;48.93
60258;BME280;46115;44.484;11.314;2022-08-05T05:05:37;100137.50;;;25.68;48.19
60258;BME280;46115;44.484;11.314;2022-08-05T05:09:39;100139.38;;;25.37;48.85
60258;BME280;46115;44.484;11.314;2022-08-05T05:13:42;100139.75;;;25.57;48.56
60258;BME280;46115;44.484;11.314;2022-08-05T05:17:48;100136.44;;;25.92;47.84
60258;BME280;46115;44.484;11.314;2022-08-05T05:21:51;100138.94;;;26.17;47.21
60258;BME280;46115;44.484;11.314;2022-08-05T05:25:53;100141.13;;;25.98;47.97
60258;BME280;46115;44.484;11.314;2022-08-05T05:29:55;100145.88;;;26.19;47.63
60258;BME280;46115;44.484;11.314;2022-08-05T05:33:59;100146.03;;;26.55;46.43
60258;BME280;46115;44.484;11.314;2022-08-05T05:38:02;100151.47;;;27.50;43.94
60258;BME280;46115;44.484;11.314;2022-08-05T05:42:06;100147.97;;;27.56;44.02
60258;BME280;46115;44.484;11.314;2022-08-05T05:46:09;100144.59;;;27.33;44.86
60258;BME280;46115;44.484;11.314;2022-08-05T05:50:14;100144.44;;;27.05;45.63
60258;BME280;46115;44.484;11.314;2022-08-05T05:54:17;100143.16;;;27.01;45.51
60258;BME280;46115;44.484;11.314;2022-08-05T05:58:19;100146.69;;;27.01;45.55
60258;BME280;46115;44.484;11.314;2022-08-05T06:02:22;100153.25;;;27.07;45.91
60258;BME280;46115;44.484;11.314;2022-08-05T06:06:26;100152.84;;;27.25;45.51
60258;BME280;46115;44.484;11.314;2022-08-05T06:10:28;100152.56;;;27.56;44.60
60258;BME280;46115;44.484;11.314;2022-08-05T06:14:31;100157.31;;;27.69;44.75
60258;BME280;46115;44.484;11.314;2022-08-05T06:18:34;100155.13;;;28.00;43.72
60258;BME280;46115;44.484;11.314;2022-08-05T06:22:39;100127.97;;;27.79;44.08
60258;BME280;46115;44.484;11.314;2022-08-05T06:26:41;100154.22;;;28.42;42.97
60258;BME280;46115;44.484;11.314;2022-08-05T06:30:44;100164.81;;;28.86;42.13
60258;BME280;46115;44.484;11.314;2022-08-05T06:34:46;100155.41;;;28.96;41.48
60258;BME280;46115;44.484;11.314;2022-08-05T06:38:50;100165.41;;;29.30;40.71
60258;BME280;46115;44.484;11.314;2022-08-05T06:42:54;100164.16;;;29.32;40.22
60258;BME280;46115;44.484;11.314;2022-08-05T06:46:57;100161.97;;;29.69;39.32
60258;BME280;46115;44.484;11.314;2022-08-05T06:50:59;100170.81;;;30.90;37.90
60258;BME280;46115;44.484;11.314;2022-08-05T06:55:04;100181.59;;;32.06;35.45
60258;BME280;46115;44.484;11.314;2022-08-05T06:59:06;100181.84;;;32.22;34.95
60258;BME280;46115;44.484;11.314;2022-08-05T07:03:09;100161.22;;;33.31;32.35
60258;BME280;46115;44.484;11.314;2022-08-05T07:07:12;100186.59;;;34.52;30.44
60258;BME280;46115;44.484;11.314;2022-08-05T07:11:16;100184.25;;;33.72;31.89
60258;BME280;46115;44.484;11.314;2022-08-05T07:15:19;100181.19;;;35.15;29.63
60258;BME280;46115;44.484;11.314;2022-08-05T07:19:39;100186.47;;;34.70;29.57
60258;BME280;46115;44.484;11.314;2022-08-05T07:23:41;100186.38;;;35.97;28.53
60258;BME280;46115;44.484;11.314;2022-08-05T07:27:45;100172.16;;;36.34;26.86
60258;BME280;46115;44.484;11.314;2022-08-05T07:31:47;100192.56;;;37.54;25.53
60258;BME280;46115;44.484;11.314;2022-08-05T07:35:50;100180.00;;;38.59;24.65
60258;BME280;46115;44.484;11.314;2022-08-05T07:39:52;100190.72;;;37.64;24.17
60258;BME280;46115;44.484;11.314;2022-08-05T07:43:57;100194.69;;;40.66;21.39
60258;BME280;46115;44.484;11.314;2022-08-05T07:48:00;100211.31;;;42.39;20.42
60258;BME280;46115;44.484;11.314;2022-08-05T07:52:03;100192.63;;;41.12;21.29
60258;BME280;46115;44.484;11.314;2022-08-05T07:56:06;100199.41;;;43.39;18.39
60258;BME280;46115;44.484;11.314;2022-08-05T08:00:11;100200.97;;;44.02;17.81
60258;BME280;46115;44.484;11.314;2022-08-05T08:04:15;100198.91;;;46.89;15.06
60258;BME280;46115;44.484;11.314;2022-08-05T08:08:17;100203.56;;;49.84;12.64
60258;BME280;46115;44.484;11.314;2022-08-05T08:12:22;100209.50;;;49.41;13.14
60258;BME280;46115;44.484;11.314;2022-08-05T08:16:26;100221.06;;;51.66;11.29
60258;BME280;46115;44.484;11.314;2022-08-05T08:20:29;100204.34;;;48.84;12.87
60258;BME280;46115;44.484;11.314;2022-08-05T08:24:32;100216.13;;;52.31;10.92
60258;BME280;46115;44.484;11.314;2022-08-05T08:28:34;100211.75;;;49.77;12.24
60258;BME280;46115;44.484;11.314;2022-08-05T08:32:38;100216.09;;;51.10;11.22
60258;BME280;46115;44.484;11.314;2022-08-05T08:36:44;100201.47;;;50.35;12.00
60258;BME280;46115;44.484;11.314;2022-08-05T08:40:46;100212.38;;;52.27;10.50
60258;BME280;46115;44.484;11.314;2022-08-05T08:44:50;100203.63;;;50.99;11.11
60258;BME280;46115;44.484;11.314;2022-08-05T08:48:56;100206.63;;;53.14;9.81
60258;BME280;46115;44.484;11.314;2022-08-05T08:53:02;100209.56;;;53.72;9.59
60258;BME280;46115;44.484;11.314;2022-08-05T08:57:06;100188.63;;;52.40;10.17
60258;BME280;46115;44.484;11.314;2022-08-05T09:01:09;100192.16;;;52.68;9.94
60258;BME280;46115;44.484;11.314;2022-08-05T09:05:13;100190.16;;;53.36;9.29
60258;BME280;46115;44.484;11.314;2022-08-05T09:09:17;100189.53;;;54.42;8.54
60258;BME280;46115;44.484;11.314;2022-08-05T09:13:20;100205.31;;;55.42;7.90
60258;BME280;46115;44.484;11.314;2022-08-05T09:17:24;100174.59;;;53.26;9.44
60258;BME280;46115;44.484;11.314;2022-08-05T09:21:27;100173.09;;;52.18;9.51
60258;BME280;46115;44.484;11.314;2022-08-05T09:25:30;100148.59;;;45.46;15.07
60258;BME280;46115;44.484;11.314;2022-08-05T09:29:38;100125.94;;;41.42;18.64
60258;BME280;46115;44.484;11.314;2022-08-05T09:33:46;100124.00;;;41.43;18.65
60258;BME280;46115;44.484;11.314;2022-08-05T09:37:52;100113.19;;;40.82;18.78
60258;BME280;46115;44.484;11.314;2022-08-05T09:41:56;100130.09;;;41.45;18.13
60258;BME280;46115;44.484;11.314;2022-08-05T09:45:59;100123.50;;;40.61;18.82
60258;BME280;46115;44.484;11.314;2022-08-05T09:50:03;100107.00;;;38.97;20.81
60258;BME280;46115;44.484;11.314;2022-08-05T09:54:07;100104.41;;;37.64;21.67
60258;BME280;46115;44.484;11.314;2022-08-05T09:58:12;100093.66;;;37.35;22.52
60258;BME280;46115;44.484;11.314;2022-08-05T10:02:29;100075.47;;;37.12;22.17
60258;BME280;46115;44.484;11.314;2022-08-05T10:06:32;100091.00;;;38.47;20.92
60258;BME280;46115;44.484;11.314;2022-08-05T10:10:38;100080.22;;;37.44;21.11
60258;BME280;46115;44.484;11.314;2022-08-05T10:14:46;100081.53;;;37.95;21.38
60258;BME280;46115;44.484;11.314;2022-08-05T10:18:49;100084.38;;;39.00;19.92
60258;BME280;46115;44.484;11.314;2022-08-05T10:22:52;100085.41;;;38.84;20.05
60258;BME280;46115;44.484;11.314;2022-08-05T10:26:57;100076.63;;;38.97;20.94
60258;BME280;46115;44.484;11.314;2022-08-05T10:31:00;100072.13;;;36.83;22.07
60258;BME280;46115;44.484;11.314;2022-08-05T10:35:03;100071.25;;;37.05;21.56
60258;BME280;46115;44.484;11.314;2022-08-05T10:39:09;100059.91;;;37.50;21.88
60258;BME280;46115;44.484;11.314;2022-08-05T10:43:35;100042.63;;;37.65;20.72
60258;BME280;46115;44.484;11.314;2022-08-05T10:47:41;100059.78;;;37.40;20.91
60258;BME280;46115;44.484;11.314;2022-08-05T10:51:46;100056.66;;;37.58;20.96
60258;BME280;46115;44.484;11.314;2022-08-05T10:56:01;100059.38;;;36.39;22.84
60258;BME280;46115;44.484;11.314;2022-08-05T11:00:10;100046.66;;;35.66;23.23
60258;BME280;46115;44.484;11.314;2022-08-05T11:04:15;100037.25;;;35.95;22.99
60258;BME280;46115;44.484;11.314;2022-08-05T11:08:18;100031.69;;;36.45;22.93
60258;BME280;46115;44.484;11.314;2022-08-05T11:12:43;100048.78;;;36.91;22.20
60258;BME280;46115;44.484;11.314;2022-08-05T11:17:27;100038.03;;;36.46;22.81
60258;BME280;46115;44.484;11.314;2022-08-05T11:21:30;100041.78;;;36.62;23.03
60258;BME280;46115;44.484;11.314;2022-08-05T11:25:34;100044.97;;;36.75;22.50
60258;BME280;46115;44.484;11.314;2022-08-05T11:29:38;100037.88;;;36.58;22.80
60258;BME280;46115;44.484;11.314;2022-08-05T11:33:54;100021.78;;;36.71;21.97
60258;BME280;46115;44.484;11.314;2022-08-05T11:38:00;100041.06;;;36.71;21.61
60258;BME280;46115;44.484;11.314;2022-08-05T11:42:03;100035.59;;;35.77;22.96
60258;BME280;46115;44.484;11.314;2022-08-05T11:46:06;100035.63;;;36.76;22.38
60258;BME280;46115;44.484;11.314;2022-08-05T11:50:10;100025.59;;;36.27;22.50
60258;BME280;46115;44.484;11.314;2022-08-05T11:54:14;100013.31;;;35.62;23.53
60258;BME280;46115;44.484;11.314;2022-08-05T11:58:28;100025.56;;;36.05;23.44
60258;BME280;46115;44.484;11.314;2022-08-05T12:02:31;100027.59;;;36.09;23.58
60258;BME280;46115;44.484;11.314;2022-08-05T12:06:35;100021.94;;;35.82;22.98
60258;BME280;46115;44.484;11.314;2022-08-05T12:10:38;100015.34;;;35.50;23.57
60258;BME280;46115;44.484;11.314;2022-08-05T12:14:43;100021.09;;;35.82;23.52
60258;BME280;46115;44.484;11.314;2022-08-05T12:18:45;100016.91;;;36.13;22.71
60258;BME280;46115;44.484;11.314;2022-08-05T12:22:49;100027.19;;;36.61;22.71
60258;BME280;46115;44.484;11.314;2022-08-05T12:26:53;100018.78;;;36.73;22.55
60258;BME280;46115;44.484;11.314;2022-08-05T12:30:56;100016.25;;;36.44;22.62
60258;BME280;46115;44.484;11.314;2022-08-05T12:34:59;100015.72;;;36.69;22.65
60258;BME280;46115;44.484;11.314;2022-08-05T12:39:04;100006.44;;;36.32;22.64
60258;BME280;46115;44.484;11.314;2022-08-05T12:43:07;100003.09;;;35.91;23.10
60258;BME280;46115;44.484;11.314;2022-08-05T12:47:10;99991.75;;;35.71;23.58
60258;BME280;46115;44.484;11.314;2022-08-05T12:51:13;99978.16;;;35.81;23.25
60258;BME280;46115;44.484;11.314;2022-08-05T12:55:20;99958.34;;;35.62;23.16
60258;BME280;46115;44.484;11.314;2022-08-05T12:59:24;99979.94;;;35.53;23.31
60258;BME280;46115;44.484;11.314;2022-08-05T13:03:27;99987.00;;;35.66;23.01
60258;BME280;46115;44.484;11.314;2022-08-05T13:07:32;99978.44;;;35.46;23.36
60258;BME280;46115;44.484;11.314;2022-08-05T13:11:40;99974.91;;;36.01;23.11
60258;BME280;46115;44.484;11.314;2022-08-05T13:15:48;99969.47;;;36.28;22.92
60258;BME280;46115;44.484;11.314;2022-08-05T13:20:00;99970.44;;;36.16;23.06
60258;BME280;46115;44.484;11.314;2022-08-05T13:24:04;99960.34;;;36.22;23.19
60258;BME280;46115;44.484;11.314;2022-08-05T13:28:09;99967.25;;;36.24;22.93
60258;BME280;46115;44.484;11.314;2022-08-05T13:32:12;99954.75;;;35.95;23.37
60258;BME280;46115;44.484;11.314;2022-08-05T13:36:15;99959.19;;;36.18;23.01
60258;BME280;46115;44.484;11.314;2022-08-05T13:40:17;99957.53;;;36.39;22.87
60258;BME280;46115;44.484;11.314;2022-08-05T13:44:21;99953.22;;;36.43;23.08
60258;BME280;46115;44.484;11.314;2022-08-05T13:48:23;99963.69;;;36.46;22.84
60258;BME280;46115;44.484;11.314;2022-08-05T13:52:26;99951.19;;;36.38;23.01
60258;BME280;46115;44.484;11.314;2022-08-05T13:56:29;99943.97;;;36.54;23.09
60258;BME280;46115;44.484;11.314;2022-08-05T14:00:33;99934.94;;;36.37;23.52
60258;BME280;46115;44.484;11.314;2022-08-05T14:04:37;99913.88;;;36.04;23.60
60258;BME280;46115;44.484;11.314;2022-08-05T14:08:57;99924.59;;;36.44;22.94
60258;BME280;46115;44.484;11.314;2022-08-05T14:13:01;99918.47;;;36.42;23.03
60258;BME280;46115;44.484;11.314;2022-08-05T14:17:05;99919.78;;;36.34;23.87
60258;BME280;46115;44.484;11.314;2022-08-05T14:21:07;99920.66;;;36.18;22.87
60258;BME280;46115;44.484;11.314;2022-08-05T14:25:10;99908.81;;;36.39;23.05
60258;BME280;46115;44.484;11.314;2022-08-05T14:29:15;99906.41;;;36.43;23.37
60258;BME280;46115;44.484;11.314;2022-08-05T14:33:19;99910.38;;;36.08;23.60
60258;BME280;46115;44.484;11.314;2022-08-05T14:37:21;99898.78;;;36.06;23.38
60258;BME280;46115;44.484;11.314;2022-08-05T14:41:23;99884.63;;;36.19;23.32
60258;BME280;46115;44.484;11.314;2022-08-05T14:45:26;99886.44;;;35.87;23.43
60258;BME280;46115;44.484;11.314;2022-08-05T14:49:30;99872.22;;;36.17;23.21
60258;BME280;46115;44.484;11.314;2022-08-05T14:53:32;99881.44;;;36.06;23.12
60258;BME280;46115;44.484;11.314;2022-08-05T14:57:35;99863.66;;;36.13;23.42
60258;BME280;46115;44.484;11.314;2022-08-05T15:01:37;99873.19;;;36.06;23.65
60258;BME280;46115;44.484;11.314;2022-08-05T15:05:42;99871.59;;;35.88;23.63
60258;BME280;46115;44.484;11.314;2022-08-05T15:09:44;99860.78;;;35.64;23.80
60258;BME280;46115;44.484;11.314;2022-08-05T15:13:47;99861.09;;;35.85;23.65
60258;BME280;46115;44.484;11.314;2022-08-05T15:17:49;99849.72;;;35.98;23.44
60258;BME280;46115;44.484;11.314;2022-08-05T15:21:53;99851.06;;;35.96;23.37
60258;BME280;46115;44.484;11.314;2022-08-05T15:25:56;99851.44;;;35.82;23.92
60258;BME280;46115;44.484;11.314;2022-08-05T15:29:58;99822.69;;;35.51;23.60
60258;BME280;46115;44.484;11.314;2022-08-05T15:34:01;99843.13;;;35.77;23.99
60258;BME280;46115;44.484;11.314;2022-08-05T15:38:05;99829.56;;;35.92;23.82
60258;BME280;46115;44.484;11.314;2022-08-05T15:42:08;99821.84;;;35.89;24.25
60258;BME280;46115;44.484;11.314;2022-08-05T15:46:10;99822.41;;;35.91;23.54
60258;BME280;46115;44.484;11.314;2022-08-05T15:50:13;99827.44;;;36.00;23.34
60258;BME280;46115;44.484;11.314;2022-08-05T15:54:17;99822.94;;;35.88;23.72
60258;BME280;46115;44.484;11.314;2022-08-05T15:58:20;99818.63;;;35.98;23.68
60258;BME280;46115;44.484;11.314;2022-08-05T16:02:22;99826.78;;;35.71;23.87
60258;BME280;46115;44.484;11.314;2022-08-05T16:06:25;99809.28;;;35.55;24.17
60258;BME280;46115;44.484;11.314;2022-08-05T16:10:29;99809.00;;;35.56;24.15
60258;BME280;46115;44.484;11.314;2022-08-05T16:14:31;99797.31;;;35.66;24.02
60258;BME280;46115;44.484;11.314;2022-08-05T16:18:34;99812.41;;;35.63;23.94
60258;BME280;46115;44.484;11.314;2022-08-05T16:22:37;99805.56;;;35.44;24.43
60258;BME280;46115;44.484;11.314;2022-08-05T16:26:51;99788.81;;;35.29;24.86
60258;BME280;46115;44.484;11.314;2022-08-05T16:30:54;99809.06;;;35.40;24.97
60258;BME280;46115;44.484;11.314;2022-08-05T16:34:57;99806.69;;;35.31;25.00
60258;BME280;46115;44.484;11.314;2022-08-05T16:38:59;99802.56;;;35.29;25.13
60258;BME280;46115;44.484;11.314;2022-08-05T16:53:48;99823.47;;;34.96;24.50
60258;BME280;46115;44.484;11.314;2022-08-05T16:57:51;99827.06;;;35.14;24.07
60258;BME280;46115;44.484;11.314;2022-08-05T17:01:53;99828.13;;;34.96;24.34
60258;BME280;46115;44.484;11.314;2022-08-05T17:05:57;99825.22;;;34.86;24.06
60258;BME280;46115;44.484;11.314;2022-08-05T17:10:02;99829.94;;;34.74;24.02
60258;BME280;46115;44.484;11.314;2022-08-05T17:14:04;99830.97;;;34.84;24.06
60258;BME280;46115;44.484;11.314;2022-08-05T17:18:06;99829.84;;;34.68;24.09
60258;BME280;46115;44.484;11.314;2022-08-05T17:22:09;99827.75;;;34.59;24.12
60258;BME280;46115;44.484;11.314;2022-08-05T17:26:13;99829.75;;;34.47;24.06
60258;BME280;46115;44.484;11.314;2022-08-05T17:30:16;99842.19;;;34.37;24.07
60258;BME280;46115;44.484;11.314;2022-08-05T17:34:19;99842.44;;;34.36;24.71
60258;BME280;46115;44.484;11.314;2022-08-05T17:38:21;99846.97;;;34.02;26.10
60258;BME280;46115;44.484;11.314;2022-08-05T17:42:25;99846.25;;;33.95;26.78
60258;BME280;46115;44.484;11.314;2022-08-05T17:46:29;99799.63;;;33.43;27.28
60258;BME280;46115;44.484;11.314;2022-08-05T17:50:31;99856.06;;;33.67;27.48
60258;BME280;46115;44.484;11.314;2022-08-05T17:54:34;99851.66;;;33.66;28.03
60258;BME280;46115;44.484;11.314;2022-08-05T17:58:39;99850.59;;;33.56;28.54
60258;BME280;46115;44.484;11.314;2022-08-05T18:02:42;99812.47;;;33.07;28.76
60258;BME280;46115;44.484;11.314;2022-08-05T18:06:46;99856.34;;;33.31;29.48
60258;BME280;46115;44.484;11.314;2022-08-05T18:10:49;99858.66;;;33.04;30.19
60258;BME280;46115;44.484;11.314;2022-08-05T18:14:52;99866.75;;;33.10;29.72
60258;BME280;46115;44.484;11.314;2022-08-05T18:18:55;99876.41;;;33.01;30.34
60258;BME280;46115;44.484;11.314;2022-08-05T18:22:57;99873.50;;;32.84;30.84
60258;BME280;46115;44.484;11.314;2022-08-05T18:27:00;99874.78;;;32.82;31.01
60258;BME280;46115;44.484;11.314;2022-08-05T18:31:04;99881.19;;;32.76;30.88
60258;BME280;46115;44.484;11.314;2022-08-05T18:35:07;99892.84;;;32.41;31.69
60258;BME280;46115;44.484;11.314;2022-08-05T18:39:09;99892.94;;;32.35;32.12
60258;BME280;46115;44.484;11.314;2022-08-05T18:43:12;99904.47;;;32.37;32.09
60258;BME280;46115;44.484;11.314;2022-08-05T18:47:16;99899.69;;;32.14;32.65
60258;BME280;46115;44.484;11.314;2022-08-05T18:51:19;99906.13;;;32.19;33.08
60258;BME280;46115;44.484;11.314;2022-08-05T18:55:39;99912.06;;;32.16;32.77
60258;BME280;46115;44.484;11.314;2022-08-05T18:59:41;99929.91;;;31.82;33.86
60258;BME280;46115;44.484;11.314;2022-08-05T19:03:45;99929.13;;;31.50;34.68
60258;BME280;46115;44.484;11.314;2022-08-05T19:07:48;99938.22;;;31.69;34.46
60258;BME280;46115;44.484;11.314;2022-08-05T19:11:52;99944.63;;;31.56;34.93
60258;BME280;46115;44.484;11.314;2022-08-05T19:15:55;99941.56;;;31.21;35.90
60258;BME280;46115;44.484;11.314;2022-08-05T19:19:58;99942.63;;;31.20;36.00
60258;BME280;46115;44.484;11.314;2022-08-05T22:06:08;100002.69;;;29.25;41.77
60258;BME280;46115;44.484;11.314;2022-08-05T22:10:11;100003.97;;;29.23;41.98
60258;BME280;46115;44.484;11.314;2022-08-05T22:14:15;100009.59;;;29.14;41.84
60258;BME280;46115;44.484;11.314;2022-08-05T22:18:17;100007.09;;;29.19;41.88
60258;BME280;46115;44.484;11.314;2022-08-05T22:22:21;100013.53;;;29.05;42.13
60258;BME280;46115;44.484;11.314;2022-08-05T22:26:24;100018.59;;;29.22;41.99
60258;BME280;46115;44.484;11.314;2022-08-05T22:30:44;100020.06;;;29.17;42.14
60258;BME280;46115;44.484;11.314;2022-08-05T22:34:46;100023.63;;;29.18;42.10
60258;BME280;46115;44.484;11.314;2022-08-05T22:38:50;100023.16;;;29.01;42.64
60258;BME280;46115;44.484;11.314;2022-08-05T22:42:53;100029.03;;;29.05;42.56
60258;BME280;46115;44.484;11.314;2022-08-05T22:46:56;100031.00;;;28.76;43.04
60258;BME280;46115;44.484;11.314;2022-08-05T22:50:58;100030.59;;;28.79;43.14
60258;BME280;46115;44.484;11.314;2022-08-05T22:55:04;100026.22;;;28.37;44.12
60258;BME280;46115;44.484;11.314;2022-08-05T22:59:07;100029.03;;;28.22;44.08
60258;BME280;46115;44.484;11.314;2022-08-05T23:03:09;100017.00;;;28.32;43.94
60258;BME280;46115;44.484;11.314;2022-08-05T23:07:12;100012.38;;;28.25;44.19
60258;BME280;46115;44.484;11.314;2022-08-05T23:11:16;100005.16;;;28.11;44.29
60258;BME280;46115;44.484;11.314;2022-08-05T23:15:18;100008.97;;;28.23;44.34
60258;BME280;46115;44.484;11.314;2022-08-05T23:19:21;100000.28;;;28.07;44.92
60258;BME280;46115;44.484;11.314;2022-08-05T23:23:23;100000.59;;;28.18;44.49
60258;BME280;46115;44.484;11.314;2022-08-05T23:27:27;100005.69;;;28.28;44.32
60258;BME280;46115;44.484;11.314;2022-08-05T23:31:30;99998.84;;;28.39;43.61
60258;BME280;46115;44.484;11.314;2022-08-05T23:35:32;100005.41;;;27.88;45.29
60258;BME280;46115;44.484;11.314;2022-08-05T23:39:35;100011.88;;;28.15;44.65
60258;BME280;46115;44.484;11.314;2022-08-05T23:43:39;99992.84;;;27.81;45.19
60258;BME280;46115;44.484;11.314;2022-08-05T23:47:41;100005.22;;;27.90;45.40
60258;BME280;46115;44.484;11.314;2022-08-05T23:51:44;100006.75;;;27.50;46.59
60258;BME280;46115;44.484;11.314;2022-08-05T23:56:04;99997.06;;;27.41;46.86
